PAHP Airport Information

Runway Information
Runway 13 Length 3300 ft width 75 ft
Elevation 4 ft Threshold 0 ft Heading 149
Runway 31 Length 3300 ft Width 75 ft
Elevation 4 ft Threshold 0 ft Heading 329
Airport Frequencies
Type AWOS Name AWOS 3 Frequency 135.1 MHZ
Type CTAF Name CTAF Frequency 123 MHZ
Type FSS Name KENAI RDO Frequency 122.4 MHZ
Type MISC Name TWEB Frequency 115.2 MHZ
Airport Navaids
Type VOR-DME Name Hooper Bay Frequency 115200 KHZ
Airport Weather Information & NOTAM
ADDS - METARS form results

(0208 UTC 23 January 2019)
Data provider http://aviationweather.gov/metar/data/
 
METAR text: PAHP 230205Z AUTO 09025G30KT 1 1/4SM -SN BR BKN024 BKN030 M06/M07 A2929 RMK AO2 PK WND 09030/0204 P0000 FZRANO
Conditions at: PAHP (HOOPER BAY , AK, US) observed 0205 UTC 23 January 2019
Temperature: -6.0°C (21°F)
Dewpoint: -7.0°C (19°F) [RH = 93%]
Pressure (altimeter): 29.29 inches Hg (992.0 mb)
Winds: from the E (90 degrees) at 29 MPH (25 knots; 12.9 m/s)
gusting to 34 MPH (30 knots; 15.4 m/s)
Visibility: 1.25 miles (2.01 km)
Ceiling: 2400 feet AGL
Clouds: broken clouds at 2400 feet AGL
broken clouds at 3000 feet AGL
Weather: -SN BR  (light snow, mist)

METAR text: PAHP 230112Z AUTO 09022KT 1 1/4SM UP BR FEW017 OVC041 M06/M07 A2929 RMK AO2 PK WND 09029/0106 P0000 FZRANO
Conditions at: PAHP (HOOPER BAY , AK, US) observed 0112 UTC 23 January 2019
Temperature: -6.0°C (21°F)
Dewpoint: -7.0°C (19°F) [RH = 93%]
Pressure (altimeter): 29.29 inches Hg (992.0 mb)
Winds: from the E (90 degrees) at 25 MPH (22 knots; 11.3 m/s)
Visibility: 1.25 miles (2.01 km)
Ceiling: 4100 feet AGL
Clouds: few clouds at 1700 feet AGL
overcast cloud deck at 4100 feet AGL
Weather: BR UP  (mist, unknown precipitation)